Time;durP1;ratioP1;P1;durP2;ratioP2;P2;SDS_P1;SDS_P2;PMS_P1;PMS_P2;Temp;Humidity;BMP_temperature;BMP_pressure;BME280_temperature;BME280_humidity;BME280_pressure;Samples;Min_cycle;Max_cycle;Signal;HPM_P1;HPM_P2
2022/09/24 00:01:47;;;;;;;;;;;17.90;99.90;;;;;;4917517;29;19919;-67
2022/09/24 00:04:14;;;;;;;;;;;17.90;99.90;;;;;;4917996;29;19911;-68
2022/09/24 00:06:41;;;;;;;;;;;17.90;99.90;;;;;;4918035;29;19911;-67
2022/09/24 00:09:08;;;;;;;;;;;17.80;99.90;;;;;;4917738;29;19915;-68
2022/09/24 00:11:35;;;;;;;;;;;17.70;99.90;;;;;;4928778;29;19910;-67
2022/09/24 00:14:01;;;;;;;;;;;17.80;99.90;;;;;;4918076;29;19923;-67
2022/09/24 00:16:30;;;;;;;;;;;17.70;99.90;;;;;;4917630;29;19938;-66
2022/09/24 00:18:58;;;;;;;;;;;17.80;99.90;;;;;;4917724;29;19923;-69
2022/09/24 00:21:27;;;;;;;;;;;17.70;99.90;;;;;;4917488;29;19915;-67
2022/09/24 00:23:55;;;;;;;;;;;17.70;99.90;;;;;;4916206;29;19911;-67
2022/09/24 00:29:08;;;;;;;;;;;17.20;99.90;;;;;;4916789;29;19938;-66
2022/09/24 00:31:34;;;;;;;;;;;17.20;99.90;;;;;;4917423;29;19911;-68
2022/09/24 00:34:01;;;;;;;;;;;17.30;99.90;;;;;;4917068;29;19922;-68
2022/09/24 00:36:28;;;;;;;;;;;17.20;99.90;;;;;;4917602;29;19919;-67
2022/09/24 00:38:56;;;;;;;;;;;17.40;99.90;;;;;;4917388;29;20040;-70
2022/09/24 00:41:24;;;;;;;;;;;17.50;99.90;;;;;;4917623;29;20279;-67
2022/09/24 00:43:51;;;;;;;;;;;17.70;99.90;;;;;;4929263;29;19919;-69
2022/09/24 00:46:36;;;;;;;;;;;17.80;99.90;;;;;;4924164;29;19955;-70
2022/09/24 00:49:11;;;;;;;;;;;17.80;99.90;;;;;;4917247;29;20281;-69
2022/09/24 00:51:39;;;;;;;;;;;17.90;99.90;;;;;;4917161;29;20464;-68
2022/09/24 00:54:08;;;;;;;;;;;17.90;99.90;;;;;;4915969;29;19919;-71
2022/09/24 00:56:37;;;;;;;;;;;17.90;99.90;;;;;;4917204;29;20437;-66
2022/09/24 00:59:05;;;;;;;;;;;17.90;99.90;;;;;;4919569;29;19922;-71
2022/09/24 01:01:32;;;;;;;;;;;18.10;99.90;;;;;;4935343;29;19919;-69
2022/09/24 01:03:59;;;;;;;;;;;18.20;99.90;;;;;;4935550;29;19919;-71
2022/09/24 01:06:26;;;;;;;;;;;18.20;99.90;;;;;;4935877;29;19962;-70
2022/09/24 01:08:55;;;;;;;;;;;18.20;99.90;;;;;;4935453;29;19926;-70
2022/09/24 01:11:39;;;;;;;;;;;18.30;99.90;;;;;;4933481;29;19914;-71
2022/09/24 01:14:18;;;;;;;;;;;18.20;99.90;;;;;;4915314;29;20362;-70
2022/09/24 01:17:16;;;;;;;;;;;18.20;99.90;;;;;;4916908;29;19922;-77
2022/09/24 01:19:43;;;;;;;;;;;18.50;99.90;;;;;;4908720;29;19923;-72
2022/09/24 01:22:30;;;;;;;;;;;18.70;99.90;;;;;;4916160;29;19911;-71
2022/09/24 01:25:15;;;;;;;;;;;18.80;99.90;;;;;;4916648;29;19954;-70
2022/09/24 01:27:59;;;;;;;;;;;18.80;99.90;;;;;;4915628;29;20425;-69
2022/09/24 01:30:31;;;;;;;;;;;18.60;99.90;;;;;;4916297;29;19915;-70
2022/09/24 01:33:00;;;;;;;;;;;18.50;99.90;;;;;;4916344;29;19937;-72
2022/09/24 01:35:27;;;;;;;;;;;18.60;99.90;;;;;;4916168;29;19911;-70
2022/09/24 01:38:04;;;;;;;;;;;18.70;99.90;;;;;;4916434;29;19920;-69
2022/09/24 01:40:31;;;;;;;;;;;18.70;99.90;;;;;;4916076;29;19985;-71
2022/09/24 01:42:59;;;;;;;;;;;18.70;99.90;;;;;;4934961;29;20052;-69
2022/09/24 01:45:30;;;;;;;;;;;18.50;99.90;;;;;;4934966;29;20331;-73
2022/09/24 01:48:00;;;;;;;;;;;18.40;99.90;;;;;;4935125;29;19919;-69
2022/09/24 01:50:28;;;;;;;;;;;18.20;99.90;;;;;;4934995;29;19915;-70
2022/09/24 01:52:59;;;;;;;;;;;18.10;99.90;;;;;;4934858;29;19915;-70
2022/09/24 01:55:27;;;;;;;;;;;18.00;99.90;;;;;;4933310;29;20274;-69
2022/09/24 01:57:59;;;;;;;;;;;18.00;99.90;;;;;;4914587;29;19970;-68
2022/09/24 02:00:29;;;;;;;;;;;18.00;99.90;;;;;;4916028;29;20290;-69
2022/09/24 02:03:00;;;;;;;;;;;18.00;99.90;;;;;;4915707;29;19911;-70
2022/09/24 02:05:35;;;;;;;;;;;18.00;99.90;;;;;;4916045;29;19915;-69
2022/09/24 02:08:06;;;;;;;;;;;18.00;99.90;;;;;;4915929;29;19922;-72
2022/09/24 02:10:37;;;;;;;;;;;18.00;99.90;;;;;;4919690;29;20270;-68
2022/09/24 02:13:06;;;;;;;;;;;18.00;99.90;;;;;;4933748;29;19915;-71
2022/09/24 02:15:36;;;;;;;;;;;18.00;99.90;;;;;;4935258;29;20373;-70
2022/09/24 02:18:05;;;;;;;;;;;17.90;99.90;;;;;;4944458;29;19925;-70
2022/09/24 02:20:34;;;;;;;;;;;17.80;99.90;;;;;;4943834;29;19911;-70
2022/09/24 02:23:03;;;;;;;;;;;17.60;99.90;;;;;;4935289;29;19915;-72
2022/09/24 02:25:53;;;;;;;;;;;17.50;99.90;;;;;;4934707;29;19910;-73
2022/09/24 02:28:21;;;;;;;;;;;17.40;99.90;;;;;;4934687;29;19950;-72
2022/09/24 02:31:08;;;;;;;;;;;17.20;99.90;;;;;;4933831;29;19910;-70
2022/09/24 02:36:23;;;;;;;;;;;17.30;99.90;;;;;;4935300;29;19933;-71
2022/09/24 02:38:50;;;;;;;;;;;17.20;99.90;;;;;;4934951;29;19922;-72
2022/09/24 02:41:18;;;;;;;;;;;17.10;99.90;;;;;;4933444;29;19915;-71
2022/09/24 02:43:44;;;;;;;;;;;17.00;99.90;;;;;;4934213;29;19910;-71
2022/09/24 02:46:11;;;;;;;;;;;16.90;99.90;;;;;;4934844;29;19919;-71
2022/09/24 02:48:38;;;;;;;;;;;16.90;99.90;;;;;;4937106;29;20370;-72
2022/09/24 02:51:05;;;;;;;;;;;16.80;99.90;;;;;;4937102;29;19974;-72
2022/09/24 02:53:32;;;;;;;;;;;16.80;99.90;;;;;;4937610;29;20282;-70
2022/09/24 02:55:59;;;;;;;;;;;16.80;99.90;;;;;;4938344;29;19915;-72
2022/09/24 02:58:27;;;;;;;;;;;16.90;99.90;;;;;;4938042;29;19922;-70
2022/09/24 03:00:57;;;;;;;;;;;16.90;99.90;;;;;;4937884;29;19928;-74
2022/09/24 03:03:23;;;;;;;;;;;16.90;99.90;;;;;;4937613;29;19911;-75
2022/09/24 03:05:51;;;;;;;;;;;16.90;99.90;;;;;;4936812;29;19915;-70
2022/09/24 03:08:20;;;;;;;;;;;16.90;99.90;;;;;;4937844;29;19978;-69
2022/09/24 03:10:47;;;;;;;;;;;17.00;99.90;;;;;;4937770;29;20342;-74
2022/09/24 03:13:13;;;;;;;;;;;17.00;99.90;;;;;;4937570;29;19923;-72
2022/09/24 03:15:40;;;;;;;;;;;16.90;99.90;;;;;;4938014;29;19938;-69
2022/09/24 03:18:07;;;;;;;;;;;16.90;99.90;;;;;;4937615;29;19947;-70
2022/09/24 03:20:33;;;;;;;;;;;16.90;99.90;;;;;;4936924;29;19977;-70
2022/09/24 03:23:00;;;;;;;;;;;16.90;99.90;;;;;;4937591;29;20399;-70
2022/09/24 03:25:26;;;;;;;;;;;16.80;99.90;;;;;;4937704;29;19911;-72
2022/09/24 03:27:53;;;;;;;;;;;16.80;99.90;;;;;;4937655;29;19915;-74
2022/09/24 03:33:05;;;;;;;;;;;16.60;99.90;;;;;;4937536;29;19917;-74
2022/09/24 03:35:31;;;;;;;;;;;16.50;99.90;;;;;;4925536;29;19926;-69
2022/09/24 03:37:58;;;;;;;;;;;16.60;99.90;;;;;;4918751;29;19927;-71
2022/09/24 03:40:24;;;;;;;;;;;16.60;99.90;;;;;;4937193;29;19921;-74
2022/09/24 03:42:51;;;;;;;;;;;16.70;99.90;;;;;;4937067;29;19998;-74
2022/09/24 03:45:18;;;;;;;;;;;16.70;99.90;;;;;;4937208;29;19922;-74
2022/09/24 03:47:44;;;;;;;;;;;16.70;99.90;;;;;;4937255;29;19994;-70
2022/09/24 03:50:11;;;;;;;;;;;16.90;99.90;;;;;;4936572;29;20349;-71
2022/09/24 03:52:38;;;;;;;;;;;16.90;99.90;;;;;;4935400;29;20438;-75
2022/09/24 03:55:06;;;;;;;;;;;17.00;99.90;;;;;;4937505;29;19911;-74
2022/09/24 03:57:33;;;;;;;;;;;16.90;99.90;;;;;;4937398;29;20323;-74
2022/09/24 03:59:59;;;;;;;;;;;16.80;99.90;;;;;;4937069;29;19927;-75
2022/09/24 04:02:26;;;;;;;;;;;16.70;99.90;;;;;;4936448;29;19921;-70
2022/09/24 04:04:53;;;;;;;;;;;16.70;99.90;;;;;;4936849;29;19911;-75
2022/09/24 04:07:19;;;;;;;;;;;16.70;99.90;;;;;;4937231;29;19911;-75
2022/09/24 04:09:46;;;;;;;;;;;16.70;99.90;;;;;;4937119;29;20359;-75
2022/09/24 04:12:13;;;;;;;;;;;16.80;99.90;;;;;;4936824;29;19918;-73
2022/09/24 04:14:40;;;;;;;;;;;16.80;99.90;;;;;;4936034;29;20014;-76
2022/09/24 04:17:07;;;;;;;;;;;16.70;99.90;;;;;;4935248;29;20351;-75
2022/09/24 04:19:33;;;;;;;;;;;16.60;99.90;;;;;;4936874;29;20397;-74
2022/09/24 04:22:00;;;;;;;;;;;16.40;99.90;;;;;;4936497;29;19918;-73
2022/09/24 04:24:31;;;;;;;;;;;16.00;99.90;;;;;;4936378;29;19962;-74
2022/09/24 04:26:58;;;;;;;;;;;16.00;99.90;;;;;;4936703;29;19926;-70
2022/09/24 04:29:25;;;;;;;;;;;15.90;99.90;;;;;;4936441;29;19922;-75
2022/09/24 04:31:51;;;;;;;;;;;15.80;99.90;;;;;;4936429;29;20389;-74
2022/09/24 04:34:20;;;;;;;;;;;15.80;99.90;;;;;;4936612;29;19923;-71
2022/09/24 04:36:46;;;;;;;;;;;15.60;99.90;;;;;;4936818;29;19915;-72
2022/09/24 04:39:14;;;;;;;;;;;15.50;99.90;;;;;;4936763;29;19977;-71
2022/09/24 04:41:41;;;;;;;;;;;15.30;99.90;;;;;;4935508;29;19923;-72
2022/09/24 04:44:07;;;;;;;;;;;15.30;99.90;;;;;;4935315;29;20429;-73
2022/09/24 04:46:35;;;;;;;;;;;15.20;99.90;;;;;;4932313;29;20001;-72
2022/09/24 04:49:02;;;;;;;;;;;15.10;99.90;;;;;;4916630;29;19915;-71
2022/09/24 04:51:33;;;;;;;;;;;15.20;99.90;;;;;;4929270;29;19919;-69
2022/09/24 04:54:03;;;;;;;;;;;15.20;99.90;;;;;;4946062;29;19970;-72
2022/09/24 04:56:31;;;;;;;;;;;15.20;99.90;;;;;;4936526;29;19922;-70
2022/09/24 04:58:58;;;;;;;;;;;15.30;99.90;;;;;;4935947;29;19919;-70
2022/09/24 05:01:25;;;;;;;;;;;15.30;99.90;;;;;;4935866;29;19923;-70
2022/09/24 05:03:52;;;;;;;;;;;15.30;99.90;;;;;;4935998;29;20362;-71
2022/09/24 05:06:20;;;;;;;;;;;15.30;99.90;;;;;;4936460;29;19982;-73
2022/09/24 05:08:48;;;;;;;;;;;15.30;99.90;;;;;;4936128;29;19915;-69
2022/09/24 05:11:15;;;;;;;;;;;15.40;99.90;;;;;;4935012;29;19918;-71
2022/09/24 05:13:43;;;;;;;;;;;15.50;99.90;;;;;;4936109;29;19934;-70
2022/09/24 05:16:10;;;;;;;;;;;15.60;99.90;;;;;;4935702;29;19921;-68
2022/09/24 05:18:37;;;;;;;;;;;15.60;99.90;;;;;;4922781;29;20366;-70
2022/09/24 05:21:05;;;;;;;;;;;15.60;99.90;;;;;;4916546;29;20005;-67
2022/09/24 05:23:31;;;;;;;;;;;15.60;99.90;;;;;;4916573;29;19915;-72
2022/09/24 05:28:43;;;;;;;;;;;15.60;99.90;;;;;;4916684;29;20146;-68
2022/09/24 05:31:09;;;;;;;;;;;15.70;99.90;;;;;;4916139;29;19962;-73
2022/09/24 05:33:36;;;;;;;;;;;15.70;99.90;;;;;;4917099;29;19911;-69
2022/09/24 05:36:03;;;;;;;;;;;15.60;99.90;;;;;;4916632;29;20449;-73
2022/09/24 05:38:31;;;;;;;;;;;15.60;99.90;;;;;;4916615;29;19970;-74
2022/09/24 05:41:01;;;;;;;;;;;15.70;99.90;;;;;;4915433;29;19930;-69
2022/09/24 05:43:28;;;;;;;;;;;15.70;99.90;;;;;;4916067;29;19915;-73
2022/09/24 05:45:57;;;;;;;;;;;15.70;99.90;;;;;;4916582;29;19915;-71
2022/09/24 05:48:27;;;;;;;;;;;15.60;99.90;;;;;;4915301;29;19974;-71
2022/09/24 05:50:56;;;;;;;;;;;15.60;99.90;;;;;;4916842;29;19915;-69
2022/09/24 05:53:26;;;;;;;;;;;15.80;99.90;;;;;;4916746;29;19967;-70
2022/09/24 05:55:52;;;;;;;;;;;16.00;99.90;;;;;;4917356;29;19922;-71
2022/09/24 05:58:20;;;;;;;;;;;16.20;99.90;;;;;;4916329;29;19915;-69
2022/09/24 06:00:47;;;;;;;;;;;16.40;99.90;;;;;;4917018;29;19927;-73
2022/09/24 06:03:15;;;;;;;;;;;16.60;99.90;;;;;;4916173;29;19918;-72
2022/09/24 06:05:45;;;;;;;;;;;16.60;99.90;;;;;;4916437;29;20390;-71
2022/09/24 06:08:15;;;;;;;;;;;16.70;99.90;;;;;;4916453;29;19950;-67
2022/09/24 06:10:42;;;;;;;;;;;16.70;99.90;;;;;;4920130;29;19915;-71
2022/09/24 06:13:10;;;;;;;;;;;16.80;99.90;;;;;;4934100;29;20014;-72
2022/09/24 06:15:37;;;;;;;;;;;16.70;99.90;;;;;;4935217;29;19915;-73
2022/09/24 06:18:05;;;;;;;;;;;16.40;99.90;;;;;;4928645;29;20286;-68
2022/09/24 06:20:32;;;;;;;;;;;16.50;99.90;;;;;;4916512;29;20321;-73
2022/09/24 06:22:59;;;;;;;;;;;16.40;99.90;;;;;;4918751;29;20006;-67
2022/09/24 06:25:26;;;;;;;;;;;16.30;99.90;;;;;;4920700;29;19939;-67
2022/09/24 06:27:59;;;;;;;;;;;16.30;99.90;;;;;;4946766;29;19962;-67
2022/09/24 06:30:40;;;;;;;;;;;16.30;99.90;;;;;;4942142;29;19968;-68
2022/09/24 06:33:08;;;;;;;;;;;16.30;99.90;;;;;;4937056;29;19915;-67
2022/09/24 06:35:36;;;;;;;;;;;16.40;99.90;;;;;;4938634;29;19918;-69
2022/09/24 06:38:03;;;;;;;;;;;16.50;99.90;;;;;;4938030;29;20054;-67
2022/09/24 06:40:30;;;;;;;;;;;16.50;99.90;;;;;;4938592;29;19922;-70
2022/09/24 06:42:57;;;;;;;;;;;16.50;99.90;;;;;;4938144;29;20255;-68
2022/09/24 06:45:25;;;;;;;;;;;16.40;99.90;;;;;;4938351;29;20374;-67
2022/09/24 06:47:55;;;;;;;;;;;16.40;99.90;;;;;;4938336;29;19951;-68
2022/09/24 06:50:24;;;;;;;;;;;16.40;99.90;;;;;;4938673;29;19911;-69
2022/09/24 06:52:51;;;;;;;;;;;16.40;99.90;;;;;;4938428;29;19921;-72
2022/09/24 06:55:18;;;;;;;;;;;16.40;99.90;;;;;;4938301;29;19954;-70
2022/09/24 06:57:44;;;;;;;;;;;16.50;99.90;;;;;;4937786;29;19918;-68
2022/09/24 07:00:12;;;;;;;;;;;16.40;99.90;;;;;;4938047;29;20493;-72
2022/09/24 07:02:39;;;;;;;;;;;16.50;99.90;;;;;;4937565;29;19922;-70
2022/09/24 07:05:06;;;;;;;;;;;16.50;99.90;;;;;;4937982;29;19938;-71
2022/09/24 07:07:33;;;;;;;;;;;16.40;99.90;;;;;;4938479;29;19998;-70
2022/09/24 07:10:01;;;;;;;;;;;16.40;99.90;;;;;;4938400;29;20460;-70
2022/09/24 07:12:31;;;;;;;;;;;16.40;99.90;;;;;;4938169;29;19966;-71
2022/09/24 07:15:00;;;;;;;;;;;16.20;99.90;;;;;;4940672;29;19915;-72
2022/09/24 07:17:27;;;;;;;;;;;16.00;99.90;;;;;;4938224;29;20704;-70
2022/09/24 07:19:54;;;;;;;;;;;15.80;99.90;;;;;;4937775;29;19919;-71
2022/09/24 07:22:21;;;;;;;;;;;15.60;99.90;;;;;;4936614;29;19925;-73
2022/09/24 07:24:48;;;;;;;;;;;15.40;99.90;;;;;;4937001;29;20142;-69
2022/09/24 07:27:15;;;;;;;;;;;15.20;99.90;;;;;;4937409;29;19911;-72
2022/09/24 07:29:41;;;;;;;;;;;15.20;99.90;;;;;;4937338;29;20275;-73
2022/09/24 07:32:08;;;;;;;;;;;15.10;99.90;;;;;;4936911;29;19911;-73
2022/09/24 07:34:35;;;;;;;;;;;15.00;99.90;;;;;;4937172;29;19981;-68
2022/09/24 07:37:01;;;;;;;;;;;15.00;99.90;;;;;;4937592;29;19919;-72
2022/09/24 07:39:28;;;;;;;;;;;14.90;99.90;;;;;;4937324;29;19927;-72
2022/09/24 07:41:55;;;;;;;;;;;14.80;99.90;;;;;;4937142;29;19915;-71
2022/09/24 07:44:24;;;;;;;;;;;14.90;99.90;;;;;;4937336;29;19914;-69
2022/09/24 07:46:51;;;;;;;;;;;15.00;99.90;;;;;;4937265;29;19958;-70
2022/09/24 07:49:18;;;;;;;;;;;15.10;99.90;;;;;;4934675;29;20028;-70
2022/09/24 07:51:45;;;;;;;;;;;14.90;99.90;;;;;;4935037;29;20381;-72
2022/09/24 07:54:12;;;;;;;;;;;14.90;99.90;;;;;;4935477;29;19918;-70
2022/09/24 07:56:39;;;;;;;;;;;14.90;99.90;;;;;;4935144;29;19915;-72
2022/09/24 07:59:06;;;;;;;;;;;14.90;99.90;;;;;;4934686;29;19926;-67
2022/09/24 08:01:33;;;;;;;;;;;14.80;99.90;;;;;;4937289;29;20456;-69
2022/09/24 08:04:00;;;;;;;;;;;14.80;99.90;;;;;;4952743;29;19911;-68
2022/09/24 08:06:27;;;;;;;;;;;14.70;99.90;;;;;;4938280;29;19911;-70
2022/09/24 08:08:55;;;;;;;;;;;14.70;99.90;;;;;;4934334;29;19915;-68
2022/09/24 08:11:22;;;;;;;;;;;14.80;99.90;;;;;;4934429;29;19915;-72
2022/09/24 08:13:49;;;;;;;;;;;14.80;99.90;;;;;;4934704;29;20378;-72
2022/09/24 08:16:20;;;;;;;;;;;14.80;99.90;;;;;;4934639;29;20413;-72
2022/09/24 08:18:46;;;;;;;;;;;14.90;99.90;;;;;;4934463;29;20271;-68
2022/09/24 08:21:14;;;;;;;;;;;14.90;99.90;;;;;;4934265;29;20409;-72
2022/09/24 08:23:42;;;;;;;;;;;14.90;99.90;;;;;;4935169;29;20370;-71
2022/09/24 08:26:09;;;;;;;;;;;14.90;99.90;;;;;;4934707;29;20015;-72
2022/09/24 08:28:37;;;;;;;;;;;14.90;99.90;;;;;;4934296;29;19921;-72
2022/09/24 08:31:07;;;;;;;;;;;14.90;99.90;;;;;;4933513;29;19914;-69
2022/09/24 08:33:35;;;;;;;;;;;14.90;99.90;;;;;;4933900;29;19910;-72
2022/09/24 08:36:06;;;;;;;;;;;14.90;99.90;;;;;;4933457;29;19914;-68
2022/09/24 08:38:32;;;;;;;;;;;14.90;99.90;;;;;;4934419;29;20401;-70
2022/09/24 08:40:59;;;;;;;;;;;14.90;99.90;;;;;;4933347;29;20787;-68
2022/09/24 08:43:35;;;;;;;;;;;14.90;99.90;;;;;;4933948;29;20378;-68
2022/09/24 08:48:51;;;;;;;;;;;15.00;99.90;;;;;;4933123;29;19970;-72
2022/09/24 08:51:18;;;;;;;;;;;15.00;99.90;;;;;;4932221;29;19921;-69
2022/09/24 08:53:48;;;;;;;;;;;14.90;99.90;;;;;;4932417;29;19914;-67
2022/09/24 08:56:18;;;;;;;;;;;14.90;99.90;;;;;;4931704;29;20042;-71
2022/09/24 08:58:58;;;;;;;;;;;14.90;99.90;;;;;;4931374;29;19923;-72
2022/09/24 09:01:31;;;;;;;;;;;14.80;99.90;;;;;;4932261;29;19923;-72
2022/09/24 09:04:04;;;;;;;;;;;14.80;99.90;;;;;;4934227;29;19921;-70
2022/09/24 09:06:48;;;;;;;;;;;14.80;99.90;;;;;;4935659;29;19915;-70
2022/09/24 09:09:20;;;;;;;;;;;14.80;99.90;;;;;;4935665;29;20298;-68
2022/09/24 09:11:51;;;;;;;;;;;14.90;99.90;;;;;;4936069;29;20278;-69
2022/09/24 09:14:21;;;;;;;;;;;14.90;99.90;;;;;;4935932;29;20062;-68
2022/09/24 09:17:05;;;;;;;;;;;14.90;99.90;;;;;;4935636;29;20009;-68
2022/09/24 09:19:38;;;;;;;;;;;14.90;99.90;;;;;;4935465;29;19954;-68
2022/09/24 09:22:12;;;;;;;;;;;14.90;99.90;;;;;;4935159;29;19911;-69
2022/09/24 09:24:47;;;;;;;;;;;14.80;99.90;;;;;;4935555;29;19921;-68
2022/09/24 09:27:15;;;;;;;;;;;14.90;99.90;;;;;;4934910;29;19918;-70
2022/09/24 09:29:45;;;;;;;;;;;15.00;99.90;;;;;;4935504;29;19911;-70
2022/09/24 09:32:26;;;;;;;;;;;14.90;99.90;;;;;;4935384;29;19911;-70
2022/09/24 09:34:57;;;;;;;;;;;14.90;99.90;;;;;;4936183;29;19919;-68
2022/09/24 09:37:31;;;;;;;;;;;14.80;99.90;;;;;;4951790;29;19982;-68
2022/09/24 09:40:00;;;;;;;;;;;14.70;99.90;;;;;;4935798;29;20298;-69
2022/09/24 09:42:39;;;;;;;;;;;14.70;99.90;;;;;;4934951;29;19911;-69
2022/09/24 09:45:09;;;;;;;;;;;14.70;99.90;;;;;;4934998;29;19918;-68
2022/09/24 09:47:53;;;;;;;;;;;14.60;99.90;;;;;;4935291;29;19922;-68
2022/09/24 09:50:23;;;;;;;;;;;14.60;99.90;;;;;;4932979;29;20528;-68
2022/09/24 09:52:50;;;;;;;;;;;14.60;99.90;;;;;;4934830;29;20382;-68
2022/09/24 09:55:27;;;;;;;;;;;14.60;99.90;;;;;;4935256;29;20358;-68
2022/09/24 09:57:58;;;;;;;;;;;14.60;99.90;;;;;;4934981;29;19954;-70
2022/09/24 10:00:26;;;;;;;;;;;14.50;99.90;;;;;;4934944;29;19989;-69
2022/09/24 10:02:53;;;;;;;;;;;14.60;99.90;;;;;;4934638;29;20358;-68
2022/09/24 10:05:21;;;;;;;;;;;14.50;99.90;;;;;;4935060;29;19921;-72
2022/09/24 10:07:52;;;;;;;;;;;14.50;99.90;;;;;;4935053;29;19934;-68
2022/09/24 10:10:23;;;;;;;;;;;14.50;99.90;;;;;;4934982;29;19914;-72
2022/09/24 10:13:06;;;;;;;;;;;14.50;99.90;;;;;;4934700;29;19959;-69
2022/09/24 10:15:34;;;;;;;;;;;14.40;99.90;;;;;;4933961;29;20363;-71
2022/09/24 10:18:00;;;;;;;;;;;14.50;99.90;;;;;;4934394;29;20366;-71
2022/09/24 10:20:30;;;;;;;;;;;14.50;99.90;;;;;;4934933;29;20427;-69
2022/09/24 10:22:59;;;;;;;;;;;14.40;99.90;;;;;;4934308;29;20009;-68
2022/09/24 10:25:27;;;;;;;;;;;14.50;99.90;;;;;;4933322;29;19915;-70
2022/09/24 10:30:32;;;;;;;;;;;14.50;99.90;;;;;;4934013;29;19918;-69
2022/09/24 10:30:48;;;;;;;;;;;14.50;99.90;;;;;;4934528;29;19915;-69
2022/09/24 10:33:17;;;;;;;;;;;14.50;99.90;;;;;;4934724;29;20414;-70
2022/09/24 10:35:44;;;;;;;;;;;14.50;99.90;;;;;;4935047;29;19910;-70
2022/09/24 10:38:23;;;;;;;;;;;14.50;99.90;;;;;;4933389;29;19954;-69
2022/09/24 10:40:50;;;;;;;;;;;14.40;99.90;;;;;;4934350;29;19918;-71
2022/09/24 10:43:18;;;;;;;;;;;14.50;99.90;;;;;;4934347;29;20378;-70
2022/09/24 10:46:06;;;;;;;;;;;14.40;99.90;;;;;;4934607;29;19911;-68
2022/09/24 10:49:05;;;;;;;;;;;14.40;99.90;;;;;;4924110;29;19958;-71
2022/09/24 10:51:40;;;;;;;;;;;14.40;99.90;;;;;;4902000;29;19926;-70
2022/09/24 10:54:18;;;;;;;;;;;14.40;99.90;;;;;;4934663;29;19918;-69
2022/09/24 10:56:50;;;;;;;;;;;14.40;99.90;;;;;;4934293;29;20029;-70
2022/09/24 10:59:32;;;;;;;;;;;14.40;99.90;;;;;;4934187;29;19919;-70
2022/09/24 11:02:24;;;;;;;;;;;14.30;99.90;;;;;;4934212;29;19934;-68
2022/09/24 11:04:57;;;;;;;;;;;14.30;99.90;;;;;;4934705;29;19911;-70
2022/09/24 11:07:26;;;;;;;;;;;14.30;99.90;;;;;;4942495;29;20005;-68
2022/09/24 11:10:11;;;;;;;;;;;14.30;99.90;;;;;;4948580;29;19910;-69
2022/09/24 11:12:38;;;;;;;;;;;14.30;99.90;;;;;;4920113;29;19915;-68
2022/09/24 11:15:08;;;;;;;;;;;14.30;99.90;;;;;;4918613;29;19939;-67
2022/09/24 11:17:34;;;;;;;;;;;14.30;99.90;;;;;;4918588;29;19915;-68
2022/09/24 11:20:20;;;;;;;;;;;14.30;99.90;;;;;;4918488;29;19923;-68
2022/09/24 11:22:59;;;;;;;;;;;14.30;99.90;;;;;;4918228;29;19919;-68
2022/09/24 11:25:28;;;;;;;;;;;14.20;99.90;;;;;;4918240;29;20389;-69
2022/09/24 11:27:57;;;;;;;;;;;14.30;99.90;;;;;;4918554;29;19949;-69
2022/09/24 11:30:47;;;;;;;;;;;14.40;99.90;;;;;;4918568;29;20382;-68
2022/09/24 11:33:17;;;;;;;;;;;14.30;99.90;;;;;;4908457;29;20002;-69
2022/09/24 11:35:51;;;;;;;;;;;14.20;99.90;;;;;;4918516;29;19915;-68
2022/09/24 11:38:41;;;;;;;;;;;14.30;99.90;;;;;;4918336;29;19915;-69
2022/09/24 11:41:20;;;;;;;;;;;14.20;99.90;;;;;;4915359;29;19912;-67
2022/09/24 11:44:12;;;;;;;;;;;14.10;99.90;;;;;;4918580;29;19998;-69
2022/09/24 11:46:47;;;;;;;;;;;14.10;99.90;;;;;;4918209;29;20267;-70
2022/09/24 11:49:32;;;;;;;;;;;14.10;99.90;;;;;;4917962;29;19915;-68
2022/09/24 11:52:02;;;;;;;;;;;14.10;99.90;;;;;;4917946;29;19942;-69
2022/09/24 11:54:34;;;;;;;;;;;14.20;99.90;;;;;;4918048;29;19941;-70
2022/09/24 11:57:21;;;;;;;;;;;14.10;99.90;;;;;;4917846;29;19927;-68
2022/09/24 11:59:59;;;;;;;;;;;14.10;99.90;;;;;;4917928;29;20481;-70
2022/09/24 12:02:33;;;;;;;;;;;14.00;99.90;;;;;;4916987;29;20217;-68
2022/09/24 12:05:02;;;;;;;;;;;14.10;99.90;;;;;;4917936;29;19919;-70
2022/09/24 12:07:44;;;;;;;;;;;14.00;99.90;;;;;;4917935;29;19919;-66
2022/09/24 12:10:31;;;;;;;;;;;14.00;99.90;;;;;;4917411;29;20362;-68
2022/09/24 12:13:37;;;;;;;;;;;13.90;99.90;;;;;;4910537;29;20285;-69
2022/09/24 12:16:16;;;;;;;;;;;14.00;99.90;;;;;;4896336;29;19915;-68
2022/09/24 12:19:00;;;;;;;;;;;14.00;99.90;;;;;;4896217;29;19923;-67
2022/09/24 12:21:30;;;;;;;;;;;13.90;99.90;;;;;;4910213;29;19962;-68
2022/09/24 12:24:01;;;;;;;;;;;14.00;99.90;;;;;;4917782;29;19922;-71
2022/09/24 12:26:30;;;;;;;;;;;14.00;99.90;;;;;;4917383;29;19915;-71
2022/09/24 12:34:41;;;;;;;;;;;13.90;99.90;;;;;;4917525;29;19970;-69
2022/09/24 12:37:13;;;;;;;;;;;13.90;99.90;;;;;;4915918;29;19915;-69
2022/09/24 12:39:48;;;;;;;;;;;13.90;99.90;;;;;;4917232;29;19923;-68
2022/09/24 12:42:19;;;;;;;;;;;13.90;99.90;;;;;;4931548;29;19935;-66
2022/09/24 12:44:57;;;;;;;;;;;13.90;99.90;;;;;;4922906;29;19919;-70
2022/09/24 12:47:26;;;;;;;;;;;13.90;99.90;;;;;;4917138;29;19950;-70
2022/09/24 12:49:58;;;;;;;;;;;13.90;99.90;;;;;;4934867;29;19973;-68
2022/09/24 12:52:25;;;;;;;;;;;13.80;99.90;;;;;;4935659;29;19911;-74
2022/09/24 12:55:01;;;;;;;;;;;13.80;99.90;;;;;;4935882;29;20381;-73
2022/09/24 12:57:33;;;;;;;;;;;13.80;99.90;;;;;;4924305;29;19919;-71
2022/09/24 13:00:03;;;;;;;;;;;13.80;99.90;;;;;;4914983;29;19935;-69
2022/09/24 13:02:34;;;;;;;;;;;13.80;99.90;;;;;;4916097;29;19950;-73
2022/09/24 13:05:00;;;;;;;;;;;13.80;99.90;;;;;;4933791;29;19918;-70
2022/09/24 13:07:30;;;;;;;;;;;13.80;99.90;;;;;;4933990;29;20388;-74
2022/09/24 13:09:58;;;;;;;;;;;13.80;99.90;;;;;;4934207;29;19998;-71
2022/09/24 13:12:31;;;;;;;;;;;13.90;99.90;;;;;;4932875;29;19961;-74
2022/09/24 13:15:05;;;;;;;;;;;13.90;99.90;;;;;;4934131;29;19911;-70
2022/09/24 13:17:32;;;;;;;;;;;13.90;99.90;;;;;;4933236;29;19945;-70
2022/09/24 13:20:03;;;;;;;;;;;13.90;99.90;;;;;;4933702;29;20525;-72
2022/09/24 13:22:31;;;;;;;;;;;14.00;99.90;;;;;;4933445;29;19958;-74
2022/09/24 13:25:24;;;;;;;;;;;14.10;99.90;;;;;;4933494;29;20333;-69
2022/09/24 13:27:55;;;;;;;;;;;14.10;99.90;;;;;;4931812;29;19921;-71
2022/09/24 13:30:34;;;;;;;;;;;14.10;99.90;;;;;;4932018;29;19919;-70
2022/09/24 13:33:03;;;;;;;;;;;14.10;99.90;;;;;;4933389;29;19958;-75
2022/09/24 13:35:33;;;;;;;;;;;14.10;99.90;;;;;;4933618;29;20002;-75
2022/09/24 13:38:06;;;;;;;;;;;14.20;99.90;;;;;;4933366;29;19915;-74
2022/09/24 13:40:36;;;;;;;;;;;14.20;99.90;;;;;;4932036;29;19967;-74
2022/09/24 13:43:35;;;;;;;;;;;14.10;99.90;;;;;;4933427;29;19919;-71
2022/09/24 13:46:04;;;;;;;;;;;14.10;99.90;;;;;;4932931;29;20263;-69
2022/09/24 13:48:41;;;;;;;;;;;14.10;99.90;;;;;;4933439;29;19915;-73
2022/09/24 13:51:11;;;;;;;;;;;14.10;99.90;;;;;;4932796;29;19922;-74
2022/09/24 13:53:37;;;;;;;;;;;14.10;99.90;;;;;;4933316;29;19922;-73
2022/09/24 13:56:13;;;;;;;;;;;14.10;99.90;;;;;;4931985;29;19915;-74
2022/09/24 13:58:41;;;;;;;;;;;14.10;99.90;;;;;;4933328;29;20162;-73
2022/09/24 14:01:19;;;;;;;;;;;14.20;99.90;;;;;;4932157;29;19930;-74
2022/09/24 14:03:54;;;;;;;;;;;14.20;99.90;;;;;;4933167;29;19914;-74
2022/09/24 14:06:30;;;;;;;;;;;14.20;99.90;;;;;;4932138;29;19926;-72
2022/09/24 14:08:56;;;;;;;;;;;14.30;99.90;;;;;;4933485;29;20294;-68
2022/09/24 14:11:23;;;;;;;;;;;14.20;99.90;;;;;;4932853;29;19921;-71
2022/09/24 14:13:51;;;;;;;;;;;14.30;99.90;;;;;;4935301;29;19919;-73
2022/09/24 14:16:18;;;;;;;;;;;14.30;99.90;;;;;;4939236;29;19911;-67
2022/09/24 14:18:45;;;;;;;;;;;14.40;99.90;;;;;;4946868;29;19958;-73
2022/09/24 14:21:20;;;;;;;;;;;14.50;99.90;;;;;;4935425;29;19918;-71
2022/09/24 14:23:50;;;;;;;;;;;14.60;99.90;;;;;;4936043;29;19911;-74
2022/09/24 14:26:23;;;;;;;;;;;14.60;99.90;;;;;;4936836;29;19910;-70
2022/09/24 14:28:52;;;;;;;;;;;14.60;99.90;;;;;;4937204;29;19921;-73
2022/09/24 14:31:19;;;;;;;;;;;14.70;99.90;;;;;;4942077;29;20382;-70
2022/09/24 14:33:46;;;;;;;;;;;14.80;99.90;;;;;;4944215;29;19915;-75
2022/09/24 14:36:13;;;;;;;;;;;14.80;99.90;;;;;;4943289;29;19918;-74
2022/09/24 14:38:48;;;;;;;;;;;14.80;99.90;;;;;;4943359;29;20017;-75
2022/09/24 14:41:18;;;;;;;;;;;14.70;99.90;;;;;;4940190;29;19919;-74
2022/09/24 14:43:51;;;;;;;;;;;14.80;99.90;;;;;;4939541;29;19915;-73
2022/09/24 14:46:21;;;;;;;;;;;14.80;99.90;;;;;;4938873;29;19915;-73
2022/09/24 14:48:48;;;;;;;;;;;14.80;99.90;;;;;;4938911;29;19922;-69
2022/09/24 14:51:28;;;;;;;;;;;14.80;99.90;;;;;;4938101;29;19911;-73
2022/09/24 14:54:02;;;;;;;;;;;14.70;99.90;;;;;;4937635;29;19915;-73
2022/09/24 14:56:31;;;;;;;;;;;14.70;99.90;;;;;;4936482;29;19918;-74